createdAt,value
2018-06-16T00:00:16.164Z,10.30
2018-06-16T00:00:49.151Z,9.88
2018-06-16T00:01:22.197Z,10.03
2018-06-16T00:03:24.840Z,9.85
2018-06-16T00:03:57.848Z,9.93
2018-06-16T00:04:30.872Z,9.53
2018-06-16T00:05:03.939Z,9.65
2018-06-16T00:05:36.946Z,10.55
2018-06-16T00:06:09.942Z,10.55
2018-06-16T00:06:42.996Z,10.70
2018-06-16T00:07:16.052Z,9.50
2018-06-16T00:07:49.064Z,9.75
2018-06-16T00:08:22.107Z,10.38
2018-06-16T00:08:55.120Z,10.13
2018-06-16T00:09:28.108Z,9.98
2018-06-16T00:10:01.164Z,9.50
2018-06-16T00:10:34.219Z,9.65
2018-06-16T00:15:57.953Z,9.98
2018-06-16T00:16:30.992Z,10.15
2018-06-16T00:17:03.994Z,10.48
2018-06-16T00:17:37.002Z,11.53
2018-06-16T00:18:10.010Z,9.90
2018-06-16T00:18:43.555Z,9.65
2018-06-16T00:19:16.560Z,9.93
2018-06-16T00:20:52.761Z,10.30
2018-06-16T00:21:25.751Z,9.68
2018-06-16T00:21:58.786Z,9.50
2018-06-16T00:22:31.794Z,10.00
2018-06-16T00:23:04.812Z,9.75
2018-06-16T00:23:37.815Z,10.40
2018-06-16T00:24:10.839Z,10.53
2018-06-16T00:24:43.834Z,11.08
2018-06-16T00:25:16.837Z,10.90
2018-06-16T00:25:50.529Z,10.72
2018-06-16T00:26:23.535Z,10.00
2018-06-16T00:26:56.553Z,11.03
2018-06-16T00:27:29.805Z,10.75
2018-06-16T00:28:02.829Z,10.32
2018-06-16T00:28:35.815Z,11.00
2018-06-16T00:29:08.795Z,11.70
2018-06-16T00:29:41.781Z,10.38
2018-06-16T00:32:56.179Z,10.98
2018-06-16T00:33:29.213Z,9.98
2018-06-16T00:34:02.210Z,10.80
2018-06-16T00:34:35.201Z,9.85
2018-06-16T00:35:08.222Z,10.03
2018-06-16T00:35:41.235Z,10.58
2018-06-16T00:36:14.229Z,11.30
2018-06-16T00:36:47.187Z,11.05
2018-06-16T00:37:21.029Z,10.45
2018-06-16T00:37:54.031Z,11.22
2018-06-16T00:38:27.107Z,10.65
2018-06-16T00:39:00.113Z,10.20
2018-06-16T00:39:33.109Z,9.98
2018-06-16T00:40:06.149Z,9.95
2018-06-16T00:40:39.149Z,10.08
2018-06-16T00:41:12.269Z,9.65
2018-06-16T00:41:45.243Z,10.23
2018-06-16T00:42:18.271Z,10.75
2018-06-16T00:42:51.335Z,10.13
2018-06-16T00:43:24.331Z,10.48
2018-06-16T00:43:57.329Z,10.55
2018-06-16T00:44:30.331Z,10.38
2018-06-16T00:45:03.537Z,10.28
2018-06-16T00:45:36.537Z,10.98
2018-06-16T00:46:09.572Z,11.15
2018-06-16T00:46:42.555Z,10.55
2018-06-16T00:47:15.555Z,12.03
2018-06-16T00:47:48.587Z,10.80
2018-06-16T00:48:21.600Z,10.95
2018-06-16T00:48:54.593Z,10.98
2018-06-16T00:49:27.583Z,10.95
2018-06-16T00:50:00.596Z,10.93
2018-06-16T00:50:33.560Z,10.68
2018-06-16T00:51:06.553Z,10.98
2018-06-16T00:51:39.531Z,12.40
2018-06-16T00:52:12.523Z,11.00
2018-06-16T00:52:45.495Z,10.95
2018-06-16T00:53:18.475Z,11.03
2018-06-16T00:53:51.503Z,11.03
2018-06-16T00:54:24.531Z,11.25
2018-06-16T00:54:57.575Z,11.53
2018-06-16T00:55:30.571Z,10.38
2018-06-16T00:56:03.613Z,13.75
2018-06-16T00:56:36.593Z,11.28
2018-06-16T00:57:26.908Z,10.88
2018-06-16T00:57:59.865Z,11.53
2018-06-16T00:58:32.886Z,10.50
2018-06-16T00:59:05.907Z,11.57
2018-06-16T00:59:38.997Z,12.20
2018-06-16T01:00:12.357Z,11.65
2018-06-16T01:00:45.371Z,11.83
2018-06-16T01:01:18.415Z,11.50
2018-06-16T01:01:51.433Z,11.33
2018-06-16T01:02:24.447Z,11.90
2018-06-16T01:02:57.437Z,11.65
2018-06-16T01:03:30.423Z,12.30
2018-06-16T01:04:03.514Z,12.20
2018-06-16T01:04:36.511Z,11.70
2018-06-16T01:05:10.085Z,12.90
2018-06-16T01:05:43.103Z,13.15
2018-06-16T01:06:16.099Z,12.40
2018-06-16T01:06:49.083Z,12.50
2018-06-16T01:07:22.099Z,12.03
2018-06-16T01:07:55.109Z,11.93
2018-06-16T01:08:28.094Z,12.75
2018-06-16T01:09:01.131Z,12.73
2018-06-16T01:09:34.149Z,12.10
2018-06-16T01:10:07.969Z,11.68
2018-06-16T01:10:40.937Z,12.33
2018-06-16T01:11:13.939Z,11.20
2018-06-16T01:11:47.022Z,11.55
2018-06-16T01:12:20.032Z,11.97
2018-06-16T01:12:53.053Z,12.37
2018-06-16T01:13:26.059Z,12.40
2018-06-16T01:13:59.037Z,12.50
2018-06-16T01:14:32.153Z,12.80
2018-06-16T01:15:05.643Z,12.60
2018-06-16T01:15:38.626Z,12.75
2018-06-16T01:16:11.624Z,12.55
2018-06-16T01:16:44.659Z,12.80
2018-06-16T01:17:17.697Z,12.90
2018-06-16T01:17:50.715Z,14.00
2018-06-16T01:18:23.713Z,13.15
2018-06-16T01:18:56.717Z,12.55
2018-06-16T01:19:29.727Z,12.60
2018-06-16T01:20:02.859Z,13.40
2018-06-16T01:20:35.859Z,14.30
2018-06-16T01:21:08.841Z,13.72
2018-06-16T01:21:41.844Z,12.58
2018-06-16T01:22:14.879Z,13.15
2018-06-16T01:22:47.913Z,13.32
2018-06-16T01:23:20.916Z,13.20
2018-06-16T01:23:53.940Z,13.53
2018-06-16T01:24:27.616Z,13.90
2018-06-16T01:25:00.629Z,11.83
2018-06-16T01:25:33.675Z,13.62
2018-06-16T01:26:06.666Z,13.55
2018-06-16T01:26:40.124Z,13.58
2018-06-16T01:27:13.192Z,13.62
2018-06-16T01:27:46.199Z,13.43
2018-06-16T01:28:19.653Z,12.50
2018-06-16T01:28:52.643Z,13.03
2018-06-16T01:29:25.601Z,12.73
2018-06-16T01:29:58.604Z,12.85
2018-06-16T01:30:31.609Z,14.45
2018-06-16T01:31:04.648Z,13.95
2018-06-16T01:31:37.675Z,14.45
2018-06-16T01:32:10.675Z,13.60
2018-06-16T01:32:43.679Z,12.98
2018-06-16T01:33:16.657Z,13.22
2018-06-16T01:33:49.647Z,12.00
2018-06-16T01:34:22.634Z,11.73
2018-06-16T01:34:55.620Z,12.85
2018-06-16T01:35:28.603Z,12.70
2018-06-16T01:36:01.596Z,12.97
2018-06-16T01:36:34.670Z,12.95
2018-06-16T01:37:07.646Z,11.55
2018-06-16T01:37:40.660Z,13.18
2018-06-16T01:38:13.622Z,12.20
2018-06-16T01:38:46.648Z,12.90
2018-06-16T01:39:19.664Z,12.20
2018-06-16T01:39:52.647Z,12.47
2018-06-16T01:40:25.817Z,11.93
2018-06-16T01:40:58.826Z,12.93
2018-06-16T01:41:31.820Z,12.53
2018-06-16T01:42:04.830Z,11.88
2018-06-16T01:42:37.878Z,12.25
2018-06-16T01:43:10.878Z,12.60
2018-06-16T01:43:43.831Z,12.18
2018-06-16T01:44:16.837Z,11.83
2018-06-16T01:44:49.816Z,12.25
2018-06-16T01:45:23.063Z,12.85
2018-06-16T01:45:56.691Z,12.03
2018-06-16T01:46:29.696Z,11.93
2018-06-16T01:47:02.668Z,11.10
2018-06-16T01:47:35.648Z,11.88
2018-06-16T01:48:08.656Z,11.30
2018-06-16T01:48:41.773Z,11.85
2018-06-16T01:49:14.787Z,11.30
2018-06-16T01:49:47.764Z,12.00
2018-06-16T01:50:20.804Z,12.23
2018-06-16T01:50:53.804Z,11.73
2018-06-16T01:51:26.788Z,11.53
2018-06-16T01:51:59.815Z,11.65
2018-06-16T01:52:32.799Z,11.88
2018-06-16T01:53:05.796Z,11.48
2018-06-16T01:53:38.820Z,12.35
2018-06-16T01:54:11.823Z,12.05
2018-06-16T01:54:44.822Z,13.28
2018-06-16T01:55:17.796Z,11.75
2018-06-16T01:55:50.856Z,12.20
2018-06-16T01:56:23.964Z,12.68
2018-06-16T01:56:57.032Z,10.88
2018-06-16T01:57:30.024Z,11.35
2018-06-16T01:58:02.988Z,11.75
2018-06-16T01:58:35.949Z,11.12
2018-06-16T01:59:08.903Z,10.53
2018-06-16T01:59:41.904Z,12.25
2018-06-16T02:00:14.930Z,11.93
2018-06-16T02:00:47.938Z,11.25
2018-06-16T02:01:20.974Z,11.90
2018-06-16T02:01:53.964Z,11.65
2018-06-16T02:02:26.930Z,11.60
2018-06-16T02:02:59.944Z,11.75
2018-06-16T02:03:33.054Z,11.22
2018-06-16T02:04:06.131Z,11.50
2018-06-16T02:04:39.124Z,11.18
2018-06-16T02:05:12.118Z,10.85
2018-06-16T02:05:45.154Z,11.55
2018-06-16T02:06:19.136Z,11.95
2018-06-16T02:06:52.108Z,10.98
2018-06-16T02:07:25.132Z,11.75
2018-06-16T02:07:58.169Z,10.75
2018-06-16T02:08:31.188Z,11.12
2018-06-16T02:09:09.410Z,11.45
2018-06-16T02:09:42.417Z,10.70
2018-06-16T02:10:15.438Z,11.30
2018-06-16T02:10:48.422Z,11.40
2018-06-16T02:11:21.410Z,10.82
2018-06-16T02:11:54.504Z,10.63
2018-06-16T02:12:27.476Z,10.78
2018-06-16T02:13:00.508Z,10.60
2018-06-16T02:13:33.522Z,10.78
2018-06-16T02:14:07.004Z,10.48
2018-06-16T02:14:39.988Z,10.63
2018-06-16T02:16:42.524Z,10.58
2018-06-16T02:17:15.768Z,10.68
2018-06-16T02:17:48.709Z,10.45
2018-06-16T02:18:21.707Z,11.80
2018-06-16T02:18:54.710Z,10.63
2018-06-16T02:19:27.714Z,10.85
2018-06-16T02:20:00.732Z,10.88
2018-06-16T02:20:33.722Z,10.95
2018-06-16T02:21:06.689Z,11.70
2018-06-16T02:21:39.696Z,11.50
2018-06-16T02:22:12.740Z,10.40
2018-06-16T02:22:45.764Z,11.53
2018-06-16T02:23:18.732Z,11.93
2018-06-16T02:23:51.708Z,11.35
2018-06-16T02:24:24.712Z,11.55
2018-06-16T02:24:57.709Z,12.07
2018-06-16T02:25:30.686Z,12.05
2018-06-16T02:26:03.741Z,12.68
2018-06-16T02:26:36.729Z,14.30
2018-06-16T02:27:09.696Z,13.62
2018-06-16T02:27:42.707Z,14.78
2018-06-16T02:28:15.684Z,15.45
2018-06-16T02:28:48.685Z,15.98
2018-06-16T02:29:21.700Z,15.78
2018-06-16T02:29:54.711Z,14.55
2018-06-16T02:30:27.706Z,14.65
2018-06-16T02:31:00.744Z,16.00
2018-06-16T02:31:33.733Z,16.20
2018-06-16T02:32:06.762Z,16.75
2018-06-16T02:32:39.756Z,19.23
2018-06-16T02:33:12.782Z,19.00
2018-06-16T02:33:45.794Z,18.32
2018-06-16T02:34:18.774Z,19.73
2018-06-16T02:34:52.216Z,20.12
2018-06-16T02:35:25.216Z,20.85
2018-06-16T02:35:58.203Z,20.15
2018-06-16T02:36:31.204Z,21.23
2018-06-16T02:37:04.206Z,21.20
2018-06-16T02:37:37.254Z,21.25
2018-06-16T02:38:10.291Z,22.30
2018-06-16T02:38:43.312Z,22.05
2018-06-16T02:39:16.326Z,22.73
2018-06-16T02:39:49.321Z,22.13
2018-06-16T02:40:22.308Z,22.93
2018-06-16T02:40:55.316Z,22.90
2018-06-16T02:41:28.337Z,22.98
2018-06-16T02:42:01.374Z,22.67
2018-06-16T02:42:34.356Z,25.25
2018-06-16T02:43:07.338Z,24.87
2018-06-16T02:43:40.309Z,27.05
2018-06-16T02:44:13.290Z,24.98
2018-06-16T02:44:46.249Z,26.30
2018-06-16T02:46:21.048Z,26.77
2018-06-16T02:46:54.335Z,27.50
2018-06-16T02:47:27.355Z,26.68
2018-06-16T02:48:00.344Z,26.55
2018-06-16T02:48:33.333Z,27.93
2018-06-16T02:49:06.302Z,27.65
2018-06-16T02:49:39.306Z,28.35
2018-06-16T02:50:12.360Z,27.58
2018-06-16T02:50:45.304Z,28.57
2018-06-16T02:51:18.300Z,27.75
2018-06-16T02:51:51.333Z,28.05
2018-06-16T02:52:24.329Z,27.13
2018-06-16T02:52:57.325Z,27.40
2018-06-16T02:53:30.323Z,29.77
2018-06-16T02:54:03.383Z,29.37
2018-06-16T02:54:36.430Z,27.15
2018-06-16T02:55:09.462Z,28.12
2018-06-16T02:55:42.436Z,29.07
2018-06-16T02:56:15.436Z,27.30
2018-06-16T02:56:48.453Z,27.58
2018-06-16T02:57:21.404Z,27.37
2018-06-16T02:57:54.371Z,29.42
2018-06-16T02:58:27.350Z,29.90
2018-06-16T02:59:00.344Z,29.18
2018-06-16T02:59:33.607Z,27.77
2018-06-16T03:00:06.632Z,29.00
2018-06-16T03:00:39.632Z,28.67
2018-06-16T03:01:12.629Z,27.52
2018-06-16T03:01:46.157Z,28.42
2018-06-16T03:02:19.180Z,28.83
2018-06-16T03:02:52.202Z,27.13
2018-06-16T03:03:25.887Z,28.60
2018-06-16T03:03:58.822Z,28.38
2018-06-16T03:04:31.856Z,27.67
2018-06-16T03:05:04.906Z,29.02
2018-06-16T03:05:37.896Z,26.82
2018-06-16T03:06:10.928Z,29.23
2018-06-16T03:06:43.965Z,27.52
2018-06-16T03:07:16.961Z,27.90
2018-06-16T03:07:50.037Z,28.75
2018-06-16T03:08:23.072Z,27.77
2018-06-16T03:08:56.076Z,27.45
2018-06-16T03:09:29.042Z,28.07
2018-06-16T03:10:02.052Z,29.05
2018-06-16T03:10:35.072Z,28.62
2018-06-16T03:11:08.074Z,26.97
2018-06-16T03:11:41.067Z,28.38
2018-06-16T03:12:14.060Z,26.82
2018-06-16T03:12:47.055Z,28.05
2018-06-16T03:13:20.625Z,27.95
2018-06-16T03:13:53.604Z,27.80
2018-06-16T03:14:26.617Z,28.70
2018-06-16T03:15:00.253Z,29.82
2018-06-16T03:15:33.280Z,28.12
2018-06-16T03:16:06.672Z,27.85
2018-06-16T03:16:39.634Z,28.42
2018-06-16T03:17:12.633Z,27.93
2018-06-16T03:17:45.620Z,28.67
2018-06-16T03:18:18.600Z,27.90
2018-06-16T03:18:51.633Z,27.65
2018-06-16T03:19:24.631Z,27.80
2018-06-16T03:19:57.667Z,29.60
2018-06-16T03:21:34.294Z,27.77
2018-06-16T03:22:07.410Z,26.97
2018-06-16T03:22:40.429Z,25.77
2018-06-16T03:23:13.488Z,27.50
2018-06-16T03:23:46.562Z,27.32
2018-06-16T03:24:19.645Z,26.40
2018-06-16T03:24:52.627Z,26.65
2018-06-16T03:25:25.641Z,25.50
2018-06-16T03:25:58.632Z,25.35
2018-06-16T03:26:31.626Z,25.75
2018-06-16T03:27:04.698Z,25.82
2018-06-16T03:27:37.818Z,25.48
2018-06-16T03:28:10.881Z,24.92
2018-06-16T03:28:43.895Z,24.92
2018-06-16T03:29:16.879Z,25.25
2018-06-16T03:29:49.877Z,24.90
2018-06-16T03:30:22.846Z,23.77
2018-06-16T03:30:55.838Z,26.23
2018-06-16T03:31:28.843Z,24.95
2018-06-16T03:32:01.841Z,24.82
2018-06-16T03:32:34.796Z,26.05
2018-06-16T03:33:07.802Z,25.40
2018-06-16T03:33:40.831Z,25.20
2018-06-16T03:34:13.815Z,27.13
2018-06-16T03:34:46.796Z,25.82
2018-06-16T03:35:19.797Z,26.27
2018-06-16T03:35:52.820Z,26.12
2018-06-16T03:36:25.886Z,25.12
2018-06-16T03:36:58.869Z,25.65
2018-06-16T03:37:31.834Z,26.30
2018-06-16T03:38:04.886Z,25.80
2018-06-16T03:38:37.894Z,25.68
2018-06-16T03:39:10.905Z,28.87
2018-06-16T03:39:43.905Z,27.05
2018-06-16T03:40:16.904Z,27.22
2018-06-16T03:40:49.918Z,26.07
2018-06-16T03:41:22.921Z,26.75
2018-06-16T03:41:55.913Z,27.62
2018-06-16T03:42:28.954Z,28.60
2018-06-16T03:43:01.967Z,27.15
2018-06-16T03:43:34.970Z,27.62
2018-06-16T03:44:07.982Z,28.42
2018-06-16T03:44:41.578Z,26.57
2018-06-16T03:45:14.583Z,26.50
2018-06-16T03:45:47.565Z,27.17
2018-06-16T03:46:20.613Z,27.85
2018-06-16T03:46:53.632Z,26.30
2018-06-16T03:47:26.636Z,27.00
2018-06-16T03:47:59.754Z,26.60
2018-06-16T03:48:32.728Z,27.25
2018-06-16T03:49:06.226Z,26.25
2018-06-16T03:49:39.250Z,26.10
2018-06-16T03:50:12.263Z,27.62
2018-06-16T03:50:45.276Z,26.52
2018-06-16T03:51:18.232Z,27.22
2018-06-16T03:51:51.192Z,27.80
2018-06-16T03:52:24.218Z,28.02
2018-06-16T03:52:57.185Z,28.07
2018-06-16T03:53:30.206Z,26.15
2018-06-16T03:54:03.235Z,28.25
2018-06-16T03:54:36.227Z,27.37
2018-06-16T03:55:09.230Z,27.32
2018-06-16T03:55:42.252Z,27.00
2018-06-16T03:56:15.282Z,27.45
2018-06-16T03:56:48.280Z,28.25
2018-06-16T03:57:21.310Z,27.73
2018-06-16T03:57:54.339Z,28.05
2018-06-16T03:58:27.350Z,28.92
2018-06-16T03:59:00.330Z,27.73
2018-06-16T03:59:33.340Z,28.27
2018-06-16T04:00:06.353Z,30.00
2018-06-16T04:00:39.353Z,28.80
2018-06-16T04:01:13.044Z,27.20
2018-06-16T04:01:46.044Z,28.47
2018-06-16T04:02:19.218Z,29.30
2018-06-16T04:02:52.236Z,30.48
2018-06-16T04:03:25.230Z,29.65
2018-06-16T04:03:58.212Z,29.30
2018-06-16T04:04:31.206Z,29.63
2018-06-16T04:05:04.512Z,28.12
2018-06-16T04:05:37.507Z,29.00
2018-06-16T04:06:10.544Z,29.12
2018-06-16T04:06:43.520Z,28.05
2018-06-16T04:07:16.507Z,29.50
2018-06-16T04:07:49.495Z,29.02
2018-06-16T04:08:22.524Z,28.92
2018-06-16T04:08:55.534Z,30.00
2018-06-16T04:09:28.528Z,29.20
2018-06-16T04:10:01.512Z,29.27
2018-06-16T04:10:34.512Z,29.50
2018-06-16T04:11:07.524Z,30.57
2018-06-16T04:11:40.537Z,30.50
2018-06-16T04:12:13.526Z,30.20
2018-06-16T04:12:46.530Z,28.83
2018-06-16T04:13:19.548Z,29.18
2018-06-16T04:13:52.623Z,30.00
2018-06-16T04:14:25.603Z,30.17
2018-06-16T04:14:58.606Z,30.23
2018-06-16T04:15:31.728Z,30.23
2018-06-16T04:16:04.822Z,29.40
2018-06-16T04:16:37.861Z,30.25
2018-06-16T04:17:15.453Z,29.87
2018-06-16T04:17:48.395Z,30.40
2018-06-16T04:18:21.383Z,29.82
2018-06-16T04:18:54.379Z,29.42
2018-06-16T04:19:27.398Z,30.15
2018-06-16T04:20:00.392Z,29.32
2018-06-16T04:20:33.380Z,30.12
2018-06-16T04:21:06.384Z,29.42
2018-06-16T04:21:39.404Z,30.65
2018-06-16T04:22:12.484Z,28.57
2018-06-16T04:22:45.535Z,24.25
2018-06-16T04:23:18.540Z,26.87
2018-06-16T04:23:51.508Z,26.73
2018-06-16T04:24:24.488Z,24.90
2018-06-16T04:24:57.584Z,26.55
2018-06-16T04:25:30.603Z,24.37
2018-06-16T04:26:03.642Z,22.98
2018-06-16T04:26:36.683Z,21.00
2018-06-16T04:27:09.692Z,19.35
2018-06-16T04:27:42.656Z,19.25
2018-06-16T04:28:15.618Z,19.32
2018-06-16T04:28:48.644Z,19.10
2018-06-16T04:29:21.645Z,19.12
2018-06-16T04:29:54.662Z,19.37
2018-06-16T04:30:27.677Z,18.67
2018-06-16T04:31:00.698Z,17.32
2018-06-16T04:31:33.687Z,18.05
2018-06-16T04:32:06.824Z,16.62
2018-06-16T04:32:39.832Z,16.80
2018-06-16T04:33:12.861Z,17.52
2018-06-16T04:33:45.947Z,15.45
2018-06-16T04:34:19.005Z,15.80
2018-06-16T04:34:52.035Z,16.87
2018-06-16T04:35:25.036Z,16.12
2018-06-16T04:35:58.054Z,14.93
2018-06-16T04:36:31.065Z,14.85
2018-06-16T04:37:05.450Z,14.15
2018-06-16T04:37:38.472Z,13.55
2018-06-16T04:38:12.182Z,13.58
2018-06-16T04:38:45.166Z,14.35
2018-06-16T04:39:18.225Z,13.68
2018-06-16T04:39:51.200Z,12.95
2018-06-16T04:40:24.224Z,13.72
2018-06-16T04:40:57.220Z,12.78
2018-06-16T04:41:30.214Z,12.82
2018-06-16T04:42:03.832Z,13.10
2018-06-16T04:42:36.853Z,13.20
2018-06-16T04:43:09.815Z,13.62
2018-06-16T04:43:42.823Z,13.25
2018-06-16T04:44:15.824Z,12.78
2018-06-16T04:44:49.484Z,13.43
2018-06-16T04:45:22.491Z,13.45
2018-06-16T04:45:55.506Z,13.28
2018-06-16T04:46:28.520Z,13.08
2018-06-16T04:47:01.500Z,13.03
2018-06-16T04:47:34.688Z,12.90
2018-06-16T04:48:07.701Z,13.58
2018-06-16T04:48:40.716Z,12.70
2018-06-16T04:49:13.702Z,11.78
2018-06-16T04:49:46.698Z,12.03
2018-06-16T04:50:19.716Z,13.38
2018-06-16T04:50:52.743Z,12.10
2018-06-16T04:51:25.732Z,13.15
2018-06-16T04:51:58.828Z,12.45
2018-06-16T04:52:31.832Z,13.38
2018-06-16T04:53:04.903Z,12.25
2018-06-16T04:53:37.864Z,12.63
2018-06-16T04:54:10.850Z,12.55
2018-06-16T04:54:43.838Z,12.55
2018-06-16T04:55:16.827Z,12.85
2018-06-16T04:55:49.984Z,12.35
2018-06-16T04:56:22.967Z,12.07
2018-06-16T04:56:55.952Z,12.30
2018-06-16T04:57:28.961Z,11.85
2018-06-16T04:58:02.020Z,11.85
2018-06-16T04:58:35.026Z,12.23
2018-06-16T04:59:08.002Z,12.33
2018-06-16T04:59:40.989Z,11.68
2018-06-16T05:00:14.130Z,11.15
2018-06-16T05:00:47.161Z,10.63
2018-06-16T05:01:20.163Z,11.28
2018-06-16T05:01:53.151Z,10.48
2018-06-16T05:02:26.150Z,10.63
2018-06-16T05:02:59.264Z,11.22
2018-06-16T05:03:32.433Z,10.45
2018-06-16T05:04:05.415Z,11.55
2018-06-16T05:04:38.400Z,9.80
2018-06-16T05:05:11.434Z,9.73
2018-06-16T05:05:44.532Z,10.98
2018-06-16T05:06:17.522Z,9.25
2018-06-16T05:06:50.517Z,9.45
2018-06-16T05:07:23.532Z,10.10
2018-06-16T05:07:56.499Z,8.83
2018-06-16T05:08:29.478Z,8.90
2018-06-16T05:09:03.896Z,8.85
2018-06-16T05:09:36.862Z,9.55
2018-06-16T05:10:09.816Z,9.28
2018-06-16T05:10:42.767Z,9.55
2018-06-16T05:11:15.750Z,8.80
2018-06-16T05:11:48.852Z,9.70
2018-06-16T05:12:21.873Z,8.88
2018-06-16T05:12:54.824Z,8.68
2018-06-16T05:13:27.805Z,8.73
2018-06-16T05:14:00.794Z,8.48
2018-06-16T05:14:33.790Z,8.63
2018-06-16T05:15:06.955Z,8.23
2018-06-16T05:15:39.945Z,8.83
2018-06-16T05:16:13.011Z,8.18
2018-06-16T05:16:46.033Z,7.50
2018-06-16T05:17:19.111Z,7.78
2018-06-16T05:17:52.137Z,7.70
2018-06-16T05:18:25.140Z,8.58
2018-06-16T05:18:58.116Z,8.85
2018-06-16T05:19:31.069Z,7.90
2018-06-16T05:20:04.169Z,8.33
2018-06-16T05:20:37.119Z,8.95
2018-06-16T05:21:10.115Z,8.73
2018-06-16T05:21:43.064Z,8.43
2018-06-16T05:24:10.597Z,8.70
2018-06-16T05:24:43.604Z,8.98
2018-06-16T05:25:16.596Z,7.67
2018-06-16T05:25:49.651Z,7.60
2018-06-16T05:26:22.584Z,7.45
2018-06-16T05:26:55.592Z,7.40
2018-06-16T05:27:28.575Z,7.60
2018-06-16T05:28:01.549Z,7.33
2018-06-16T05:28:34.525Z,7.35
2018-06-16T05:29:07.585Z,7.83
2018-06-16T05:29:40.615Z,7.65
2018-06-16T05:30:13.604Z,7.37
2018-06-16T05:30:46.596Z,7.97
2018-06-16T05:32:49.197Z,7.50
2018-06-16T05:33:22.193Z,7.95
2018-06-16T05:33:55.369Z,8.05
2018-06-16T05:34:28.377Z,7.37
2018-06-16T05:35:01.389Z,7.08
2018-06-16T05:35:34.417Z,7.55
2018-06-16T05:36:07.461Z,8.38
2018-06-16T05:36:40.477Z,7.80
2018-06-16T05:37:13.469Z,7.08
2018-06-16T05:37:46.493Z,7.00
2018-06-16T05:38:19.557Z,6.65
2018-06-16T05:38:52.571Z,7.22
2018-06-16T05:39:25.601Z,7.15
2018-06-16T05:39:58.599Z,6.92
2018-06-16T05:40:31.605Z,6.97
2018-06-16T05:41:04.599Z,7.35
2018-06-16T05:41:37.945Z,7.33
2018-06-16T05:42:10.961Z,6.95
2018-06-16T05:42:43.940Z,6.92
2018-06-16T05:43:16.925Z,7.33
2018-06-16T05:43:49.937Z,7.60
2018-06-16T05:44:22.969Z,7.17
2018-06-16T05:44:56.891Z,6.95
2018-06-16T05:45:29.915Z,7.40
2018-06-16T05:46:03.120Z,7.62
2018-06-16T05:46:36.083Z,6.85
2018-06-16T05:47:09.081Z,7.75
2018-06-16T05:47:42.093Z,7.05
2018-06-16T05:48:15.044Z,7.42
2018-06-16T05:48:48.038Z,8.15
2018-06-16T05:49:21.053Z,7.67
2018-06-16T05:49:54.131Z,7.37
2018-06-16T05:50:27.145Z,7.77
2018-06-16T05:51:00.175Z,7.42
2018-06-16T05:51:33.149Z,7.87
2018-06-16T05:52:06.205Z,7.47
2018-06-16T05:52:39.203Z,7.83
2018-06-16T05:53:12.215Z,7.33
2018-06-16T05:53:45.215Z,7.83
2018-06-16T05:54:18.253Z,9.33
2018-06-16T05:54:51.287Z,7.78
2018-06-16T05:55:24.267Z,7.10
2018-06-16T05:55:57.283Z,8.13
2018-06-16T05:56:30.355Z,8.00
2018-06-16T05:57:03.395Z,7.30
2018-06-16T05:57:37.191Z,8.53
2018-06-16T05:58:10.175Z,8.13
2018-06-16T05:58:43.171Z,7.92
2018-06-16T05:59:16.235Z,7.95
2018-06-16T05:59:49.345Z,7.65
2018-06-16T06:00:22.346Z,7.95
2018-06-16T06:00:55.335Z,8.20
2018-06-16T06:01:28.345Z,8.05
2018-06-16T06:02:01.337Z,8.98
2018-06-16T06:02:34.327Z,7.37
2018-06-16T06:03:07.314Z,8.05
2018-06-16T06:03:40.307Z,7.10
2018-06-16T06:04:13.315Z,6.97
2018-06-16T06:04:46.345Z,7.40
2018-06-16T06:05:19.369Z,8.18
2018-06-16T06:05:52.383Z,8.10
2018-06-16T06:06:25.368Z,7.40
2018-06-16T06:06:58.391Z,6.90
2018-06-16T06:07:31.387Z,8.03
2018-06-16T06:08:04.459Z,8.15
2018-06-16T06:08:37.467Z,7.30
2018-06-16T06:09:10.628Z,7.17
2018-06-16T06:09:43.661Z,7.08
2018-06-16T06:10:16.731Z,7.78
2018-06-16T06:10:49.620Z,7.60
2018-06-16T06:11:22.655Z,7.40
2018-06-16T06:11:55.655Z,8.53
2018-06-16T06:12:29.691Z,7.83
2018-06-16T06:13:02.701Z,7.67
2018-06-16T06:13:35.703Z,7.80
2018-06-16T06:14:09.373Z,7.45
2018-06-16T06:14:42.540Z,7.53
2018-06-16T06:15:15.563Z,7.83
2018-06-16T06:15:48.608Z,7.70
2018-06-16T06:16:21.605Z,8.00
2018-06-16T06:16:55.535Z,8.38
2018-06-16T06:17:28.575Z,7.53
2018-06-16T06:18:01.638Z,8.08
2018-06-16T06:18:34.677Z,7.80
2018-06-16T06:19:07.699Z,8.18
2018-06-16T06:19:40.703Z,7.55
2018-06-16T06:20:13.689Z,7.40
2018-06-16T06:20:46.703Z,7.03
2018-06-16T06:21:19.680Z,6.83
2018-06-16T06:21:52.709Z,7.58
2018-06-16T06:22:25.716Z,7.22
2018-06-16T06:22:58.699Z,7.83
2018-06-16T06:23:31.744Z,7.47
2018-06-16T06:24:04.877Z,7.92
2018-06-16T06:24:37.904Z,8.35
2018-06-16T06:25:10.882Z,7.37
2018-06-16T06:25:43.883Z,7.97
2018-06-16T06:26:16.891Z,7.80
2018-06-16T06:26:49.895Z,7.47
2018-06-16T06:27:22.866Z,7.67
2018-06-16T06:27:56.282Z,7.72
2018-06-16T06:28:29.593Z,8.10
2018-06-16T06:29:02.592Z,7.75
2018-06-16T06:29:35.603Z,7.12
2018-06-16T06:30:08.609Z,7.72
2018-06-16T06:30:41.621Z,7.58
2018-06-16T06:31:14.615Z,7.53
2018-06-16T06:31:47.801Z,7.80
2018-06-16T06:32:20.777Z,7.90
2018-06-16T06:32:53.831Z,7.22
2018-06-16T06:33:26.801Z,8.23
2018-06-16T06:33:59.797Z,7.92
2018-06-16T06:34:32.833Z,7.78
2018-06-16T06:35:05.895Z,8.25
2018-06-16T06:35:38.899Z,8.00
2018-06-16T06:36:12.445Z,8.45
2018-06-16T06:36:47.113Z,8.23
2018-06-16T06:37:20.138Z,8.43
2018-06-16T06:37:53.133Z,7.75
2018-06-16T06:38:26.133Z,8.50
2018-06-16T06:38:59.138Z,8.65
2018-06-16T06:39:32.175Z,7.75
2018-06-16T06:40:05.463Z,8.18
2018-06-16T06:40:38.460Z,8.18
2018-06-16T06:41:12.234Z,7.90
2018-06-16T06:41:45.268Z,7.97
2018-06-16T06:42:18.262Z,7.50
2018-06-16T06:42:51.323Z,8.13
2018-06-16T06:43:24.418Z,7.85
2018-06-16T06:43:57.420Z,7.55
2018-06-16T06:44:30.452Z,7.62
2018-06-16T06:45:03.585Z,7.35
2018-06-16T06:45:36.604Z,7.97
2018-06-16T06:46:09.973Z,7.95
2018-06-16T06:46:42.983Z,7.80
2018-06-16T06:47:16.052Z,7.75
2018-06-16T06:47:49.062Z,8.93
2018-06-16T06:48:22.127Z,6.70
2018-06-16T06:48:55.179Z,7.60
2018-06-16T06:49:28.214Z,7.22
2018-06-16T06:50:01.218Z,6.78
2018-06-16T06:50:34.259Z,6.42
2018-06-16T06:51:07.313Z,6.72
2018-06-16T06:51:40.381Z,7.57
2018-06-16T06:52:13.367Z,6.53
2018-06-16T06:52:46.367Z,6.97
2018-06-16T06:53:19.389Z,6.62
2018-06-16T06:53:52.363Z,6.70
2018-06-16T06:54:25.387Z,6.37
2018-06-16T06:54:58.423Z,7.25
2018-06-16T06:55:31.489Z,7.22
2018-06-16T06:56:04.532Z,6.87
2018-06-16T06:56:37.539Z,7.10
2018-06-16T06:57:10.568Z,7.90
2018-06-16T06:57:43.567Z,7.65
2018-06-16T06:58:16.741Z,6.75
2018-06-16T06:58:49.777Z,7.53
2018-06-16T06:59:22.768Z,6.55
2018-06-16T06:59:55.799Z,7.20
2018-06-16T07:00:28.903Z,7.35
2018-06-16T07:01:01.900Z,7.28
2018-06-16T07:01:34.905Z,6.80
2018-06-16T07:02:07.905Z,6.78
2018-06-16T07:02:40.929Z,6.80
2018-06-16T07:03:13.929Z,6.47
2018-06-16T07:03:47.000Z,6.28
2018-06-16T07:04:20.034Z,6.50
2018-06-16T07:04:53.079Z,6.35
2018-06-16T07:05:26.100Z,6.33
2018-06-16T07:05:59.143Z,6.03
2018-06-16T07:06:32.146Z,5.70
2018-06-16T07:07:05.319Z,5.83
2018-06-16T07:07:38.344Z,5.85
2018-06-16T07:08:11.356Z,6.50
2018-06-16T07:08:44.382Z,5.75
2018-06-16T07:09:18.074Z,5.67
2018-06-16T07:09:51.081Z,5.22
2018-06-16T07:10:24.085Z,6.53
2018-06-16T07:10:57.102Z,5.23
2018-06-16T07:11:30.105Z,5.53
2018-06-16T07:12:03.140Z,5.20
2018-06-16T07:12:36.128Z,6.12
2018-06-16T07:13:09.148Z,5.47
2018-06-16T07:13:42.193Z,5.50
2018-06-16T07:14:15.211Z,5.20
2018-06-16T07:14:48.518Z,5.60
2018-06-16T07:15:21.546Z,6.20
2018-06-16T07:15:54.658Z,5.12
2018-06-16T07:16:27.710Z,5.80
2018-06-16T07:17:00.688Z,5.92
2018-06-16T07:17:33.719Z,5.70
2018-06-16T07:18:06.830Z,5.30
2018-06-16T07:20:10.018Z,5.78
2018-06-16T07:20:43.043Z,5.22
2018-06-16T07:21:16.071Z,5.10
2018-06-16T07:21:49.073Z,5.40
2018-06-16T07:22:22.084Z,4.70
2018-06-16T07:22:55.088Z,5.40
2018-06-16T07:23:28.127Z,6.05
2018-06-16T07:24:01.162Z,5.87
2018-06-16T07:24:34.154Z,5.25
2018-06-16T07:25:07.155Z,5.55
2018-06-16T07:25:40.177Z,5.25
2018-06-16T07:26:13.218Z,5.53
2018-06-16T07:26:46.291Z,5.78
2018-06-16T07:27:19.310Z,5.50
2018-06-16T07:27:52.294Z,5.25
2018-06-16T07:28:25.317Z,5.40
2018-06-16T07:28:58.299Z,6.10
2018-06-16T07:29:31.292Z,5.45